createdAt,value
2023-10-11T00:03:53.992Z,72.24
2023-10-11T00:07:59.246Z,72.39
2023-10-11T00:12:05.657Z,72.10
2023-10-11T00:16:10.655Z,73.07
2023-10-11T00:20:29.379Z,73.45
2023-10-11T00:24:33.142Z,73.14
2023-10-11T00:28:42.606Z,72.71
2023-10-11T00:32:46.728Z,72.82
2023-10-11T00:36:51.627Z,73.33
2023-10-11T00:41:08.540Z,73.21
2023-10-11T00:45:18.284Z,71.83
2023-10-11T00:49:23.203Z,72.63
2023-10-11T00:53:28.417Z,73.44
2023-10-11T00:57:36.655Z,73.74
2023-10-11T01:01:41.766Z,73.66
2023-10-11T01:05:50.501Z,71.85
2023-10-11T01:09:54.127Z,72.35
2023-10-11T01:14:00.572Z,72.97
2023-10-11T01:18:05.799Z,73.24
2023-10-11T01:22:10.929Z,73.08
2023-10-11T01:26:16.718Z,72.74
2023-10-11T01:30:20.116Z,73.25
2023-10-11T01:34:28.345Z,73.64
2023-10-11T01:38:34.772Z,74.87
2023-10-11T01:42:38.762Z,76.18
2023-10-11T01:46:42.767Z,75.70
2023-10-11T01:50:49.073Z,76.33
2023-10-11T01:54:58.127Z,75.50
2023-10-11T01:59:03.094Z,75.44
2023-10-11T02:03:09.822Z,75.04
2023-10-11T02:07:14.037Z,73.77
2023-10-11T02:11:24.657Z,72.56
2023-10-11T02:15:30.669Z,73.40
2023-10-11T02:19:36.462Z,73.84
2023-10-11T02:23:41.465Z,74.57
2023-10-11T02:27:46.777Z,73.05
2023-10-11T02:31:52.795Z,73.18
2023-10-11T02:36:09.804Z,72.59
2023-10-11T02:40:17.921Z,73.04
2023-10-11T02:44:24.587Z,72.97
2023-10-11T02:48:28.883Z,73.71
2023-10-11T02:52:37.512Z,74.01
2023-10-11T02:56:48.412Z,74.05
2023-10-11T03:01:07.900Z,74.18
2023-10-11T03:05:28.533Z,74.62
2023-10-11T03:09:34.538Z,74.14
2023-10-11T03:13:43.409Z,74.39
2023-10-11T03:17:54.725Z,73.88
2023-10-11T03:21:58.955Z,73.90
2023-10-11T03:26:17.576Z,73.28
2023-10-11T03:30:25.365Z,73.43
2023-10-11T03:34:32.174Z,73.01
2023-10-11T03:38:35.674Z,73.93
2023-10-11T03:42:55.250Z,73.72
2023-10-11T03:47:00.184Z,73.90
2023-10-11T03:51:08.576Z,74.53
2023-10-11T03:55:14.426Z,74.79
2023-10-11T03:59:20.057Z,73.44
2023-10-11T04:03:23.476Z,72.31
2023-10-11T04:07:32.954Z,72.36
2023-10-11T04:11:40.913Z,72.21
2023-10-11T04:15:51.044Z,73.18
2023-10-11T04:20:01.361Z,73.68
2023-10-11T04:24:08.336Z,73.66
2023-10-11T04:28:14.084Z,74.52
2023-10-11T04:32:21.608Z,75.07
2023-10-11T04:36:25.706Z,74.98
2023-10-11T04:40:51.147Z,75.06
2023-10-11T04:44:58.660Z,75.88
2023-10-11T04:49:22.319Z,75.32
2023-10-11T04:53:34.420Z,74.31
2023-10-11T04:57:42.115Z,74.03
2023-10-11T05:02:00.331Z,73.59
2023-10-11T05:06:14.478Z,73.10
2023-10-11T05:10:31.819Z,73.23
2023-10-11T05:14:41.196Z,73.57
2023-10-11T05:18:45.249Z,74.18
2023-10-11T05:22:56.410Z,74.46
2023-10-11T05:27:13.476Z,74.55
2023-10-11T05:31:35.943Z,74.68
2023-10-11T05:36:06.350Z,75.13
2023-10-11T05:40:30.362Z,75.21
2023-10-11T05:44:52.191Z,75.26
2023-10-11T05:49:14.880Z,74.97
2023-10-11T05:53:22.133Z,73.79
2023-10-11T05:57:29.728Z,72.94
2023-10-11T06:01:35.540Z,72.51
2023-10-11T06:05:42.755Z,72.26
2023-10-11T06:09:47.556Z,73.21
2023-10-11T06:13:54.200Z,74.08
2023-10-11T06:17:58.154Z,74.40
2023-10-11T06:22:11.568Z,74.08
2023-10-11T06:26:51.695Z,74.74
2023-10-11T06:30:54.989Z,74.45
2023-10-11T06:34:58.854Z,75.02
2023-10-11T06:39:21.972Z,75.14
2023-10-11T06:43:25.250Z,72.78
2023-10-11T06:47:35.374Z,74.70
2023-10-11T06:51:39.428Z,75.28
2023-10-11T06:55:49.604Z,75.18
2023-10-11T06:59:58.400Z,74.35
2023-10-11T07:04:02.359Z,72.21
2023-10-11T07:08:09.468Z,72.92
2023-10-11T07:12:28.222Z,71.97
2023-10-11T07:16:33.014Z,73.05
2023-10-11T07:20:49.239Z,71.24
2023-10-11T07:24:57.270Z,70.06
2023-10-11T07:29:03.963Z,68.95
2023-10-11T07:33:07.887Z,67.36
2023-10-11T07:37:13.665Z,65.97
2023-10-11T07:41:25.570Z,64.98
2023-10-11T07:45:31.684Z,64.30
2023-10-11T07:49:40.776Z,62.43
2023-10-11T07:53:46.123Z,61.65
2023-10-11T07:57:49.640Z,60.26
2023-10-11T08:01:58.770Z,60.28
2023-10-11T08:06:06.540Z,58.82
2023-10-11T08:10:32.218Z,58.02
2023-10-11T08:14:35.707Z,56.89
2023-10-11T08:18:40.479Z,56.30
2023-10-11T08:22:48.009Z,56.12
2023-10-11T08:26:53.740Z,54.67
2023-10-11T08:31:00.128Z,54.48
2023-10-11T08:35:06.000Z,52.63
2023-10-11T08:39:14.687Z,51.82
2023-10-11T08:43:19.835Z,50.25
2023-10-11T08:47:23.447Z,49.32
2023-10-11T08:51:37.888Z,51.41
2023-10-11T08:55:42.122Z,48.87
2023-10-11T08:59:51.960Z,49.67
2023-10-11T09:04:06.775Z,50.13
2023-10-11T09:08:23.072Z,49.73
2023-10-11T09:12:27.472Z,45.62
2023-10-11T09:16:36.799Z,44.88
2023-10-11T09:20:45.679Z,44.66
2023-10-11T09:25:08.967Z,47.24
2023-10-11T09:29:17.986Z,42.88
2023-10-11T09:33:23.447Z,43.07
2023-10-11T09:37:33.140Z,42.86
2023-10-11T09:41:42.094Z,44.50
2023-10-11T09:45:55.940Z,43.58
2023-10-11T09:50:02.864Z,43.73
2023-10-11T09:54:14.793Z,42.47
2023-10-11T09:58:31.989Z,44.50
2023-10-11T10:02:39.049Z,41.63
2023-10-11T10:07:13.901Z,43.50
2023-10-11T10:11:22.020Z,39.66
2023-10-11T10:15:35.150Z,39.00
2023-10-11T10:19:47.543Z,39.87
2023-10-11T10:23:52.885Z,39.74
2023-10-11T10:28:02.252Z,40.98
2023-10-11T10:32:20.553Z,40.68
2023-10-11T10:36:39.105Z,41.54
2023-10-11T10:40:47.359Z,38.69
2023-10-11T10:44:53.501Z,37.55
2023-10-11T10:48:58.955Z,37.72
2023-10-11T10:53:04.411Z,36.41
2023-10-11T10:57:09.604Z,37.33
2023-10-11T11:01:13.970Z,35.73
2023-10-11T11:05:28.141Z,37.63
2023-10-11T11:09:36.747Z,36.83
2023-10-11T11:13:41.940Z,35.85
2023-10-11T11:17:52.689Z,36.96
2023-10-11T11:22:13.393Z,39.74
2023-10-11T11:30:35.741Z,35.71
2023-10-11T11:34:43.027Z,34.58
2023-10-11T11:38:51.061Z,37.08
2023-10-11T11:42:56.302Z,35.75
2023-10-11T11:47:05.808Z,36.15
2023-10-11T11:51:17.881Z,34.52
2023-10-11T11:55:27.797Z,36.08
2023-10-11T11:59:32.578Z,34.12
2023-10-11T12:03:37.827Z,35.97
2023-10-11T12:07:41.885Z,35.38
2023-10-11T12:11:51.316Z,34.75
2023-10-11T12:15:58.053Z,33.85
2023-10-11T12:20:01.629Z,32.73
2023-10-11T12:24:24.315Z,32.70
2023-10-11T12:28:43.890Z,34.02
2023-10-11T12:32:50.139Z,33.32
2023-10-11T12:36:56.326Z,33.82
2023-10-11T12:41:02.596Z,33.44
2023-10-11T12:45:11.566Z,33.16
2023-10-11T12:49:16.164Z,35.53
2023-10-11T12:53:22.745Z,34.56
2023-10-11T12:57:30.151Z,33.35
2023-10-11T13:01:41.609Z,34.20
2023-10-11T13:05:47.324Z,35.47
2023-10-11T13:09:50.679Z,34.91
2023-10-11T13:14:12.338Z,34.66
2023-10-11T13:18:26.183Z,35.29
2023-10-11T13:22:36.640Z,36.48
2023-10-11T13:26:44.550Z,34.86
2023-10-11T13:35:19.422Z,36.79
2023-10-11T13:39:34.664Z,35.57
2023-10-11T13:43:39.059Z,35.08
2023-10-11T13:47:43.012Z,34.65
2023-10-11T13:51:49.901Z,34.65
2023-10-11T13:55:56.315Z,34.83
2023-10-11T14:00:24.237Z,35.10
2023-10-11T14:04:49.158Z,33.91
2023-10-11T14:08:54.439Z,34.63
2023-10-11T14:13:10.758Z,34.70
2023-10-11T14:17:16.994Z,34.89
2023-10-11T14:21:26.614Z,34.88
2023-10-11T14:25:31.783Z,35.52
2023-10-11T14:33:54.167Z,34.39
2023-10-11T14:38:16.707Z,34.40
2023-10-11T14:42:26.224Z,35.23
2023-10-11T14:46:31.028Z,35.64
2023-10-11T14:50:48.466Z,35.96
2023-10-11T14:55:06.523Z,36.54
2023-10-11T14:59:13.825Z,36.27
2023-10-11T15:03:17.942Z,36.86
2023-10-11T15:07:21.815Z,36.84
2023-10-11T15:11:29.903Z,36.98
2023-10-11T15:15:35.696Z,37.67
2023-10-11T15:19:40.624Z,38.24
2023-10-11T15:23:45.683Z,38.73
2023-10-11T15:27:50.530Z,39.12
2023-10-11T15:31:55.586Z,39.59
2023-10-11T15:36:01.456Z,39.89
2023-10-11T15:40:07.209Z,40.63
2023-10-11T15:44:17.747Z,41.33
2023-10-11T15:48:23.919Z,41.52
2023-10-11T15:52:27.926Z,42.05
2023-10-11T15:56:34.422Z,43.43
2023-10-11T16:00:43.329Z,43.45
2023-10-11T16:04:49.444Z,43.48
2023-10-11T16:08:53.568Z,44.54
2023-10-11T16:12:59.019Z,45.18
2023-10-11T16:17:05.543Z,46.03
2023-10-11T16:21:12.483Z,46.68
2023-10-11T16:25:20.306Z,46.71
2023-10-11T16:29:56.122Z,45.71
2023-10-11T16:34:57.546Z,46.66
2023-10-11T16:39:02.644Z,48.81
2023-10-11T16:43:06.930Z,51.03
2023-10-11T16:47:10.768Z,50.66
2023-10-11T16:51:17.374Z,50.24
2023-10-11T16:55:23.271Z,51.70
2023-10-11T16:59:26.681Z,52.98
2023-10-11T17:03:30.629Z,53.31
2023-10-11T17:07:34.102Z,53.95
2023-10-11T17:11:39.333Z,54.31
2023-10-11T17:15:45.777Z,55.01
2023-10-11T17:19:51.298Z,55.07
2023-10-11T17:23:55.001Z,55.54
2023-10-11T17:28:00.765Z,55.78
2023-10-11T17:36:34.839Z,56.74
2023-10-11T17:40:39.064Z,56.99
2023-10-11T17:44:45.465Z,57.49
2023-10-11T17:48:50.224Z,57.88
2023-10-11T17:52:56.032Z,58.29
2023-10-11T17:56:59.616Z,58.47
2023-10-11T18:01:03.141Z,59.31
2023-10-11T18:05:09.259Z,59.92
2023-10-11T18:09:17.567Z,59.01
2023-10-11T18:13:21.306Z,59.99
2023-10-11T18:17:29.854Z,60.66
2023-10-11T18:21:37.819Z,60.07
2023-10-11T18:25:43.602Z,61.37
2023-10-11T18:29:50.564Z,62.28
2023-10-11T18:33:56.502Z,60.98
2023-10-11T18:38:00.973Z,61.28
2023-10-11T18:42:06.453Z,61.17
2023-10-11T18:46:11.906Z,62.38
2023-10-11T18:50:16.462Z,63.41
2023-10-11T18:54:25.172Z,63.19
2023-10-11T18:58:33.491Z,62.76
2023-10-11T19:02:37.403Z,62.39
2023-10-11T19:06:41.655Z,61.90
2023-10-11T19:10:45.532Z,61.57
2023-10-11T19:14:52.369Z,60.43
2023-10-11T19:18:58.119Z,60.07
2023-10-11T19:23:03.564Z,60.78
2023-10-11T19:27:07.996Z,59.84
2023-10-11T19:31:17.312Z,60.35
2023-10-11T19:35:25.434Z,60.77
2023-10-11T19:39:37.469Z,61.39
2023-10-11T19:43:41.258Z,61.38
2023-10-11T20:03:55.670Z,62.16
2023-10-11T20:08:01.693Z,64.00
2023-10-11T20:12:07.899Z,64.43
2023-10-11T20:16:12.878Z,64.62
2023-10-11T20:20:20.879Z,63.71
2023-10-11T20:24:24.558Z,63.31
2023-10-11T20:28:32.806Z,64.23
2023-10-11T20:32:36.939Z,65.26
2023-10-11T20:36:43.830Z,65.58
2023-10-11T20:40:51.526Z,65.63
2023-10-11T20:44:55.290Z,65.89
2023-10-11T20:49:00.298Z,65.50
2023-10-11T20:53:05.600Z,65.91
2023-10-11T20:57:18.046Z,66.25
2023-10-11T21:01:22.149Z,65.76
2023-10-11T21:05:27.465Z,65.04
2023-10-11T21:09:33.278Z,65.13
2023-10-11T21:13:37.385Z,65.72
2023-10-11T21:17:42.218Z,65.20
2023-10-11T21:21:49.917Z,64.11
2023-10-11T21:26:01.720Z,63.42
2023-10-11T21:30:06.281Z,62.64
2023-10-11T21:34:13.361Z,63.26
2023-10-11T21:38:16.900Z,62.82
2023-10-11T21:42:23.480Z,63.26
2023-10-11T21:46:26.949Z,63.70
2023-10-11T21:50:31.225Z,63.59
2023-10-11T21:54:36.145Z,62.84
2023-10-11T21:58:41.935Z,64.07
2023-10-11T22:02:46.932Z,64.90
2023-10-11T22:06:51.530Z,64.24
2023-10-11T22:10:56.284Z,65.46
2023-10-11T22:15:06.194Z,65.50
2023-10-11T22:19:16.616Z,66.26
2023-10-11T22:23:21.814Z,67.83
2023-10-11T22:27:25.687Z,67.64
2023-10-11T22:31:31.979Z,66.26
2023-10-11T22:35:35.960Z,66.46
2023-10-11T22:39:39.544Z,66.78
2023-10-11T22:43:44.428Z,66.32
2023-10-11T22:47:49.792Z,66.26
2023-10-11T22:51:56.445Z,66.32
2023-10-11T22:55:59.867Z,66.43
2023-10-11T23:00:05.336Z,66.10
2023-10-11T23:04:10.320Z,66.05
2023-10-11T23:08:14.709Z,65.59
2023-10-11T23:12:21.980Z,66.58
2023-10-11T23:16:28.857Z,66.17
2023-10-11T23:20:40.100Z,66.53
2023-10-11T23:24:46.038Z,66.93
2023-10-11T23:28:49.520Z,66.98
2023-10-11T23:33:09.020Z,67.06
2023-10-11T23:37:16.069Z,65.96
2023-10-11T23:41:21.371Z,66.89
2023-10-11T23:45:24.647Z,67.06
2023-10-11T23:53:45.292Z,67.25
2023-10-11T23:57:51.093Z,66.87
